createdAt,value
2024-01-19T00:08:46.922Z,100.00
2024-01-19T00:18:51.149Z,100.00
2024-01-19T00:28:53.950Z,100.00
2024-01-19T00:38:58.297Z,100.00
2024-01-19T00:49:00.949Z,100.00
2024-01-19T00:59:05.129Z,100.00
2024-01-19T01:09:08.740Z,100.00
2024-01-19T01:19:12.858Z,100.00
2024-01-19T01:29:15.676Z,100.00
2024-01-19T01:39:20.238Z,100.00
2024-01-19T01:49:23.239Z,100.00
2024-01-19T01:59:27.919Z,100.00
2024-01-19T02:09:31.340Z,100.00
2024-01-19T02:19:36.823Z,100.00
2024-01-19T02:29:41.044Z,99.07
2024-01-19T02:39:43.789Z,98.17
2024-01-19T02:49:48.258Z,99.28
2024-01-19T02:59:50.859Z,100.00
2024-01-19T03:09:55.004Z,100.00
2024-01-19T03:19:57.735Z,100.00
2024-01-19T03:30:01.934Z,99.91
2024-01-19T03:40:07.490Z,100.00
2024-01-19T03:50:12.406Z,98.95
2024-01-19T04:00:15.580Z,98.91
2024-01-19T04:10:19.640Z,99.05
2024-01-19T04:20:22.451Z,96.77
2024-01-19T04:30:26.620Z,95.50
2024-01-19T04:40:29.363Z,97.54
2024-01-19T04:50:33.622Z,98.82
2024-01-19T05:00:36.363Z,99.68
2024-01-19T05:10:40.634Z,98.28
2024-01-19T05:20:43.545Z,97.13
2024-01-19T05:30:49.635Z,96.38
2024-01-19T05:40:52.401Z,96.06
2024-01-19T05:50:56.684Z,95.56
2024-01-19T06:00:59.722Z,95.69
2024-01-19T06:11:03.864Z,95.42
2024-01-19T06:21:11.425Z,95.58
2024-01-19T06:31:15.540Z,96.83
2024-01-19T06:41:19.059Z,95.24
2024-01-19T06:51:25.540Z,96.86
2024-01-19T07:01:28.387Z,97.25
2024-01-19T07:11:32.490Z,97.35
2024-01-19T07:21:41.288Z,96.63
2024-01-19T07:31:45.419Z,96.26
2024-01-19T07:41:48.157Z,97.42
2024-01-19T07:51:52.312Z,98.50
2024-01-19T08:01:55.403Z,97.23
2024-01-19T08:11:59.606Z,95.71
2024-01-19T08:22:02.472Z,96.28
2024-01-19T08:32:06.871Z,95.95
2024-01-19T08:42:09.722Z,96.39
2024-01-19T08:52:13.842Z,92.14
2024-01-19T09:02:16.644Z,89.46
2024-01-19T09:12:20.793Z,83.61
2024-01-19T09:22:23.347Z,80.07
2024-01-19T09:32:28.085Z,79.67
2024-01-19T09:42:34.721Z,72.39
2024-01-19T09:52:51.027Z,74.00
2024-01-19T10:02:56.854Z,82.19
2024-01-19T10:13:02.345Z,85.06
2024-01-19T10:23:19.786Z,81.63
2024-01-19T10:33:23.927Z,70.35
2024-01-19T10:43:28.161Z,64.88
2024-01-19T10:53:32.448Z,75.01
2024-01-19T11:03:35.272Z,75.89
2024-01-19T11:13:41.371Z,81.40
2024-01-19T11:23:45.061Z,85.07
2024-01-19T11:33:49.377Z,82.09
2024-01-19T11:43:52.284Z,82.34
2024-01-19T11:54:01.246Z,83.83
2024-01-19T12:04:04.390Z,82.80
2024-01-19T12:14:10.746Z,76.72
2024-01-19T12:24:20.494Z,69.48
2024-01-19T12:34:24.589Z,73.75
2024-01-19T12:44:27.958Z,80.38
2024-01-19T12:54:44.416Z,85.17
2024-01-19T13:04:47.359Z,85.48
2024-01-19T13:14:51.464Z,85.22
2024-01-19T13:24:54.476Z,87.06
2024-01-19T13:34:58.604Z,86.74
2024-01-19T13:45:03.519Z,84.57
2024-01-19T13:55:09.786Z,85.46
2024-01-19T14:05:12.807Z,88.04
2024-01-19T14:15:17.318Z,86.11
2024-01-19T14:25:20.061Z,79.05
2024-01-19T14:35:24.749Z,74.92
2024-01-19T14:45:27.652Z,81.05
2024-01-19T14:55:32.117Z,85.95
2024-01-19T15:05:35.007Z,87.52
2024-01-19T15:15:39.066Z,89.41
2024-01-19T15:25:42.427Z,92.00
2024-01-19T15:35:46.851Z,93.93
2024-01-19T15:45:51.661Z,96.19
2024-01-19T15:55:55.809Z,96.48
2024-01-19T16:05:58.774Z,96.35
2024-01-19T16:16:08.502Z,97.00
2024-01-19T16:26:11.410Z,96.06
2024-01-19T16:36:15.639Z,98.08
2024-01-19T16:46:21.986Z,98.61
2024-01-19T16:56:26.511Z,99.70
2024-01-19T17:06:29.547Z,100.00
2024-01-19T17:16:34.092Z,100.00
2024-01-19T17:26:36.673Z,100.00
2024-01-19T17:36:40.798Z,100.00
2024-01-19T17:46:44.654Z,100.00
2024-01-19T17:56:48.778Z,100.00
2024-01-19T18:06:51.805Z,100.00
2024-01-19T18:16:56.712Z,100.00
2024-01-19T18:27:00.312Z,100.00
2024-01-19T18:37:05.444Z,98.28
2024-01-19T18:47:08.539Z,98.52
2024-01-19T18:57:15.096Z,98.82
2024-01-19T19:07:19.037Z,98.98
2024-01-19T19:17:23.418Z,98.56
2024-01-19T19:27:26.374Z,98.51
2024-01-19T19:37:30.448Z,97.29
2024-01-19T19:47:33.214Z,97.42
2024-01-19T19:57:39.131Z,97.44
2024-01-19T20:07:42.016Z,100.00
2024-01-19T20:17:50.528Z,100.00
2024-01-19T20:27:53.544Z,100.00
2024-01-19T20:37:57.873Z,100.00
2024-01-19T20:48:01.066Z,100.00
2024-01-19T20:58:05.990Z,100.00
2024-01-19T21:08:09.223Z,100.00
2024-01-19T21:18:13.504Z,100.00
2024-01-19T21:28:16.773Z,100.00
2024-01-19T21:38:20.923Z,100.00
2024-01-19T21:48:24.019Z,100.00
2024-01-19T21:58:28.293Z,100.00
2024-01-19T22:08:31.572Z,100.00
2024-01-19T22:18:38.210Z,100.00
2024-01-19T22:28:41.255Z,100.00
2024-01-19T22:38:45.938Z,100.00
2024-01-19T22:48:49.514Z,100.00
2024-01-19T22:58:57.554Z,100.00
2024-01-19T23:09:00.968Z,100.00
2024-01-19T23:19:19.769Z,99.04
2024-01-19T23:29:25.077Z,98.89
2024-01-19T23:39:30.227Z,97.96
2024-01-19T23:49:34.998Z,98.33
2024-01-19T23:59:39.118Z,97.02
